createdAt,value
2022-11-07T00:01:40.760Z,11.95
2022-11-07T00:04:07.668Z,15.13
2022-11-07T00:06:37.347Z,14.70
2022-11-07T00:09:04.435Z,14.90
2022-11-07T00:11:31.592Z,14.85
2022-11-07T00:13:58.501Z,15.48
2022-11-07T00:16:26.746Z,17.83
2022-11-07T00:18:53.654Z,15.93
2022-11-07T00:21:20.553Z,15.73
2022-11-07T00:23:47.428Z,14.90
2022-11-07T00:26:15.258Z,15.23
2022-11-07T00:28:44.154Z,16.10
2022-11-07T00:31:14.407Z,15.98
2022-11-07T00:33:42.747Z,16.10
2022-11-07T00:36:17.929Z,14.27
2022-11-07T00:41:12.547Z,17.10
2022-11-07T00:43:39.785Z,17.10
2022-11-07T00:46:09.658Z,16.30
2022-11-07T00:48:37.216Z,15.45
2022-11-07T00:51:24.492Z,16.40
2022-11-07T00:53:52.185Z,18.38
2022-11-07T00:56:23.406Z,18.10
2022-11-07T00:58:55.891Z,16.00
2022-11-07T01:01:27.953Z,15.40
2022-11-07T01:04:14.044Z,14.57
2022-11-07T01:06:43.795Z,18.08
2022-11-07T01:09:16.211Z,18.90
2022-11-07T01:11:44.134Z,16.30
2022-11-07T01:14:14.309Z,21.17
2022-11-07T01:16:42.004Z,18.98
2022-11-07T01:19:10.672Z,19.95
2022-11-07T01:21:40.850Z,21.88
2022-11-07T01:24:11.336Z,23.50
2022-11-07T01:26:41.191Z,20.92
2022-11-07T01:29:08.352Z,20.20
2022-11-07T01:31:35.927Z,20.05
2022-11-07T01:34:03.262Z,19.58
2022-11-07T01:36:30.501Z,21.08
2022-11-07T01:38:57.402Z,20.83
2022-11-07T01:41:32.012Z,21.23
2022-11-07T01:44:07.872Z,21.02
2022-11-07T01:46:40.381Z,25.10
2022-11-07T01:49:28.263Z,19.23
2022-11-07T01:52:02.656Z,23.23
2022-11-07T01:54:36.354Z,24.17
2022-11-07T01:57:19.538Z,26.30
2022-11-07T01:59:47.329Z,24.45
2022-11-07T02:02:14.758Z,25.08
2022-11-07T02:04:42.618Z,23.55
2022-11-07T02:07:30.692Z,26.17
2022-11-07T02:09:59.575Z,23.65
2022-11-07T02:12:27.893Z,22.25
2022-11-07T02:14:56.209Z,26.25
2022-11-07T02:17:23.362Z,26.48
2022-11-07T02:19:54.035Z,25.88
2022-11-07T02:22:41.152Z,26.60
2022-11-07T02:25:13.388Z,25.13
2022-11-07T02:27:43.172Z,25.77
2022-11-07T02:30:16.605Z,24.85
2022-11-07T02:32:43.951Z,33.15
2022-11-07T02:35:42.056Z,32.83
2022-11-07T02:38:32.317Z,29.42
2022-11-07T02:41:08.219Z,29.95
2022-11-07T02:43:39.228Z,26.70
2022-11-07T02:46:10.257Z,27.50
2022-11-07T02:49:01.802Z,26.92
2022-11-07T02:51:29.203Z,26.08
2022-11-07T02:53:57.248Z,25.25
2022-11-07T02:56:24.886Z,29.80
2022-11-07T02:58:52.851Z,28.80
2022-11-07T03:01:20.855Z,26.17
2022-11-07T03:03:50.581Z,24.00
2022-11-07T03:06:25.064Z,30.73
2022-11-07T03:08:52.777Z,25.73
2022-11-07T03:11:19.802Z,33.55
2022-11-07T03:13:50.010Z,27.48
2022-11-07T03:16:19.258Z,29.10
2022-11-07T03:18:46.218Z,27.77
2022-11-07T03:21:13.637Z,29.48
2022-11-07T03:23:40.730Z,27.33
2022-11-07T03:26:07.675Z,29.08
2022-11-07T03:28:34.674Z,27.23
2022-11-07T03:31:03.629Z,30.27
2022-11-07T03:33:31.331Z,26.67
2022-11-07T03:35:58.651Z,24.92
2022-11-07T03:38:25.660Z,25.40
2022-11-07T03:40:52.579Z,28.88
2022-11-07T03:43:19.420Z,26.13
2022-11-07T03:45:46.553Z,30.50
2022-11-07T03:48:13.316Z,28.08
2022-11-07T03:50:40.138Z,26.77
2022-11-07T03:53:07.003Z,33.60
2022-11-07T03:55:33.888Z,28.77
2022-11-07T03:58:00.690Z,32.65
2022-11-07T04:00:27.672Z,29.65
2022-11-07T04:02:54.722Z,30.48
2022-11-07T04:05:21.847Z,34.95
2022-11-07T04:07:48.730Z,31.17
2022-11-07T04:10:15.660Z,29.58
2022-11-07T04:13:02.965Z,38.17
2022-11-07T04:15:48.285Z,30.15
2022-11-07T04:18:15.271Z,29.23
2022-11-07T04:20:42.065Z,29.73
2022-11-07T04:23:08.967Z,29.58
2022-11-07T04:26:30.141Z,31.52
2022-11-07T04:28:57.257Z,25.52
2022-11-07T04:31:24.186Z,24.73
2022-11-07T04:33:51.787Z,25.38
2022-11-07T04:36:19.114Z,21.58
2022-11-07T04:38:46.035Z,27.10
2022-11-07T04:41:24.123Z,27.70
2022-11-07T04:43:51.699Z,23.27
2022-11-07T04:46:18.531Z,21.80
2022-11-07T04:48:45.515Z,23.52
2022-11-07T04:51:20.302Z,24.27
2022-11-07T04:53:47.248Z,22.73
2022-11-07T04:56:14.103Z,22.92
2022-11-07T04:58:40.938Z,24.73
2022-11-07T05:01:07.812Z,24.60
2022-11-07T05:03:40.359Z,27.83
2022-11-07T05:06:14.393Z,23.90
2022-11-07T05:08:41.234Z,26.63
2022-11-07T05:11:08.073Z,22.10
2022-11-07T05:13:35.145Z,20.67
2022-11-07T05:16:01.923Z,23.52
2022-11-07T05:18:28.717Z,25.08
2022-11-07T05:20:56.292Z,23.70
2022-11-07T05:23:23.131Z,24.08
2022-11-07T05:25:54.170Z,20.15
2022-11-07T05:28:36.797Z,22.48
2022-11-07T05:34:44.248Z,25.63
2022-11-07T05:38:58.291Z,22.85
2022-11-07T05:42:34.693Z,23.30
2022-11-07T05:45:13.317Z,21.60
2022-11-07T05:47:40.175Z,19.02
2022-11-07T05:50:07.910Z,21.20
2022-11-07T05:52:34.818Z,23.92
2022-11-07T05:55:01.649Z,20.85
2022-11-07T05:57:30.614Z,20.83
2022-11-07T05:59:57.518Z,22.77
2022-11-07T06:02:24.432Z,24.45
2022-11-07T06:04:51.377Z,22.02
2022-11-07T06:07:18.174Z,23.58
2022-11-07T06:09:45.077Z,25.27
2022-11-07T06:12:33.658Z,25.95
2022-11-07T06:15:00.710Z,22.90
2022-11-07T06:17:27.546Z,23.45
2022-11-07T06:19:54.341Z,26.30
2022-11-07T06:22:21.192Z,28.83
2022-11-07T06:24:48.160Z,27.20
2022-11-07T06:27:15.017Z,23.02
2022-11-07T06:29:41.795Z,25.67
2022-11-07T06:33:08.100Z,24.42
2022-11-07T06:35:36.370Z,29.33
2022-11-07T06:38:06.253Z,27.52
2022-11-07T06:40:53.771Z,29.02
2022-11-07T06:51:45.350Z,28.02
2022-11-07T06:54:14.772Z,27.35
2022-11-07T06:56:41.639Z,29.02
2022-11-07T06:59:33.187Z,23.83
2022-11-07T07:02:21.686Z,27.83
2022-11-07T07:05:00.693Z,27.55
2022-11-07T07:07:30.526Z,32.10
2022-11-07T07:13:41.836Z,26.65
2022-11-07T07:16:09.560Z,27.10
2022-11-07T07:18:55.922Z,25.40
2022-11-07T07:22:13.850Z,21.42
2022-11-07T07:24:40.784Z,23.15
2022-11-07T07:30:30.303Z,20.30
2022-11-07T07:33:02.003Z,24.13
2022-11-07T07:35:29.041Z,21.52
2022-11-07T07:37:55.845Z,23.77
2022-11-07T07:40:45.962Z,20.13
2022-11-07T07:43:13.077Z,19.63
2022-11-07T07:45:40.097Z,21.08
2022-11-07T07:48:07.051Z,20.00
2022-11-07T07:50:33.871Z,17.33
2022-11-07T07:53:04.780Z,20.90
2022-11-07T07:55:35.341Z,15.40
2022-11-07T07:58:02.326Z,18.42
2022-11-07T08:00:29.170Z,15.70
2022-11-07T08:03:10.274Z,17.75
2022-11-07T08:06:28.601Z,16.55
2022-11-07T08:08:55.436Z,16.55
2022-11-07T08:11:22.551Z,15.15
2022-11-07T08:13:49.602Z,13.85
2022-11-07T08:16:16.475Z,15.10
2022-11-07T08:18:43.390Z,13.43
2022-11-07T08:21:10.773Z,13.68
2022-11-07T08:23:38.022Z,15.23
2022-11-07T08:26:05.700Z,18.73
2022-11-07T08:28:35.900Z,15.40
2022-11-07T08:31:10.162Z,12.50
2022-11-07T08:33:38.195Z,14.13
2022-11-07T08:36:07.338Z,11.52
2022-11-07T08:38:36.262Z,13.20
2022-11-07T08:41:04.192Z,13.07
2022-11-07T08:43:31.162Z,14.85
2022-11-07T08:45:58.118Z,13.35
2022-11-07T08:48:25.111Z,9.50
2022-11-07T08:50:55.016Z,10.45
2022-11-07T08:53:28.146Z,8.75
2022-11-07T08:56:10.445Z,8.93
2022-11-07T08:58:38.086Z,10.48
2022-11-07T09:02:14.437Z,9.43
2022-11-07T09:04:28.274Z,9.13
2022-11-07T09:06:57.508Z,8.57
2022-11-07T09:09:24.402Z,7.63
2022-11-07T09:11:51.239Z,6.82
2022-11-07T09:14:18.093Z,6.32
2022-11-07T09:16:53.809Z,7.07
2022-11-07T09:19:20.769Z,6.47
2022-11-07T09:21:48.611Z,4.90
2022-11-07T09:24:15.631Z,5.97
2022-11-07T09:26:42.549Z,4.72
2022-11-07T09:29:09.474Z,6.43
2022-11-07T09:31:36.351Z,5.80
2022-11-07T09:34:03.234Z,6.03
2022-11-07T09:36:30.085Z,7.50
2022-11-07T09:38:57.451Z,5.70
2022-11-07T09:41:42.830Z,4.40
2022-11-07T09:47:14.571Z,4.85
2022-11-07T09:49:51.517Z,6.32
2022-11-07T09:52:43.579Z,4.05
2022-11-07T09:55:25.670Z,3.55
2022-11-07T09:58:00.396Z,6.20
2022-11-07T10:00:31.592Z,5.30
2022-11-07T10:03:01.795Z,4.50
2022-11-07T10:06:44.657Z,4.15
2022-11-07T10:09:27.110Z,3.60
2022-11-07T10:12:55.354Z,4.07
2022-11-07T10:15:45.432Z,4.50
2022-11-07T10:18:51.305Z,5.75
2022-11-07T10:21:45.189Z,4.18
2022-11-07T10:24:54.521Z,6.65
2022-11-07T10:27:23.508Z,5.53
2022-11-07T10:29:54.589Z,4.05
2022-11-07T10:32:39.843Z,3.38
2022-11-07T10:35:13.005Z,3.28
2022-11-07T10:37:39.856Z,3.83
2022-11-07T10:40:26.189Z,3.45
2022-11-07T10:43:40.808Z,3.30
2022-11-07T10:46:21.407Z,6.97
2022-11-07T10:49:02.985Z,4.82
2022-11-07T10:51:42.674Z,4.53
2022-11-07T10:54:25.978Z,7.35
2022-11-07T10:57:16.492Z,5.40
2022-11-07T10:59:52.411Z,4.50
2022-11-07T11:02:31.178Z,4.90
2022-11-07T11:05:23.001Z,3.55
2022-11-07T11:07:52.841Z,3.33
2022-11-07T11:10:31.058Z,2.28
2022-11-07T11:12:57.992Z,5.43
2022-11-07T11:15:32.743Z,6.43
2022-11-07T11:18:06.543Z,7.47
2022-11-07T11:21:04.318Z,4.40
2022-11-07T11:23:36.506Z,5.70
2022-11-07T11:26:16.096Z,3.80
2022-11-07T11:28:49.877Z,4.65
2022-11-07T11:31:39.844Z,2.40
2022-11-07T11:34:49.290Z,4.25
2022-11-07T11:37:23.053Z,6.53
2022-11-07T11:41:03.302Z,5.85
2022-11-07T11:48:02.245Z,4.72
2022-11-07T11:51:05.403Z,2.60
2022-11-07T12:15:49.481Z,3.17
2022-11-07T12:18:24.033Z,5.05
2022-11-07T12:21:21.083Z,4.60
2022-11-07T12:24:44.194Z,7.93
2022-11-07T12:27:33.806Z,3.10
2022-11-07T12:30:48.612Z,5.18
2022-11-07T12:33:54.417Z,3.00
2022-11-07T12:37:23.894Z,4.38
2022-11-07T12:40:30.823Z,3.90
2022-11-07T12:43:29.560Z,8.90
2022-11-07T12:46:02.152Z,3.95
2022-11-07T12:48:55.835Z,2.85
2022-11-07T12:52:28.707Z,4.97
2022-11-07T12:55:08.716Z,2.63
2022-11-07T12:57:39.156Z,6.50
2022-11-07T13:00:16.703Z,3.63
2022-11-07T13:03:18.285Z,4.07
2022-11-07T13:06:07.956Z,2.33
2022-11-07T13:08:59.462Z,3.42
2022-11-07T13:11:51.912Z,3.28
2022-11-07T13:14:30.796Z,3.10
2022-11-07T13:26:32.873Z,2.97
2022-11-07T13:29:41.919Z,4.15
2022-11-07T13:32:13.103Z,3.08
2022-11-07T13:34:55.657Z,5.03
2022-11-07T13:37:32.082Z,6.13
2022-11-07T13:40:30.985Z,3.67
2022-11-07T13:43:07.377Z,2.92
2022-11-07T13:45:52.062Z,6.88
2022-11-07T13:48:42.043Z,3.05
2022-11-07T13:51:39.826Z,2.60
2022-11-07T13:54:47.291Z,4.97
2022-11-07T13:57:26.841Z,2.40
2022-11-07T14:00:10.960Z,4.38
2022-11-07T14:02:55.291Z,2.78
2022-11-07T14:05:36.408Z,3.92
2022-11-07T14:08:31.360Z,4.38
2022-11-07T14:10:59.580Z,5.93
2022-11-07T14:13:46.074Z,4.35
2022-11-07T14:16:22.506Z,2.75
2022-11-07T14:18:59.382Z,3.10
2022-11-07T14:21:36.607Z,5.80
2022-11-07T14:24:20.670Z,6.88
2022-11-07T14:27:05.099Z,3.95
2022-11-07T14:29:33.104Z,3.07
2022-11-07T14:32:07.251Z,2.85
2022-11-07T14:34:46.323Z,6.05
2022-11-07T14:37:18.386Z,7.30
2022-11-07T14:39:45.920Z,95.97
2022-11-07T14:42:23.236Z,13.25
2022-11-07T14:44:55.838Z,8.13
2022-11-07T14:47:35.077Z,6.68
2022-11-07T14:50:04.429Z,6.32
2022-11-07T14:53:04.872Z,7.78
2022-11-07T15:07:52.850Z,7.95
2022-11-07T15:10:38.904Z,4.07
2022-11-07T15:13:24.706Z,41.83
2022-11-07T15:16:15.344Z,107.45
2022-11-07T15:18:47.357Z,60.17
2022-11-07T15:21:33.738Z,33.92
2022-11-07T15:27:44.203Z,7.65
2022-11-07T15:30:59.674Z,7.32
2022-11-07T15:33:57.922Z,9.13
2022-11-07T15:36:25.929Z,4.80
2022-11-07T15:38:54.358Z,4.63
2022-11-07T15:41:21.270Z,5.22
2022-11-07T15:43:48.438Z,2.88
2022-11-07T15:46:35.123Z,4.40
2022-11-07T15:49:02.673Z,4.57
2022-11-07T15:51:31.000Z,2.95
2022-11-07T15:53:58.308Z,3.10
2022-11-07T15:56:26.399Z,2.63
2022-11-07T15:58:55.292Z,2.25
2022-11-07T16:06:00.928Z,3.22
2022-11-07T16:09:33.175Z,2.30
2022-11-07T16:13:06.793Z,2.97
2022-11-07T16:16:26.515Z,4.32
2022-11-07T16:18:54.131Z,4.78
2022-11-07T16:21:24.353Z,5.50
2022-11-07T16:23:51.356Z,4.50
2022-11-07T16:26:28.829Z,9.85
2022-11-07T16:28:55.952Z,78.97
2022-11-07T16:31:31.918Z,49.88
2022-11-07T16:39:01.370Z,18.35
2022-11-07T16:41:29.838Z,7.60
2022-11-07T16:43:56.793Z,6.45
2022-11-07T16:46:27.158Z,4.53
2022-11-07T16:49:05.078Z,4.53
2022-11-07T16:51:33.013Z,5.95
2022-11-07T16:53:59.850Z,6.68
2022-11-07T16:56:32.234Z,5.47
2022-11-07T16:58:59.982Z,4.10
2022-11-07T17:01:28.478Z,5.00
2022-11-07T17:03:55.521Z,6.38
2022-11-07T17:06:28.047Z,8.23
2022-11-07T17:09:01.192Z,6.05
2022-11-07T17:21:04.297Z,5.95
2022-11-07T17:23:32.028Z,6.88
2022-11-07T17:26:07.593Z,7.78
2022-11-07T17:33:35.935Z,10.98
2022-11-07T17:36:03.278Z,8.60
2022-11-07T17:38:32.654Z,8.90
2022-11-07T17:41:50.341Z,9.25
2022-11-07T17:54:33.224Z,8.98
2022-11-07T17:57:00.150Z,8.70
2022-11-07T18:17:15.292Z,7.15
2022-11-07T18:20:06.813Z,9.60
2022-11-07T18:22:37.364Z,9.45
2022-11-07T18:25:06.921Z,11.13
2022-11-07T18:27:37.698Z,9.88
2022-11-07T18:30:35.502Z,9.77
2022-11-07T18:33:25.918Z,6.63
2022-11-07T18:36:21.083Z,8.85
2022-11-07T18:38:48.510Z,9.20
2022-11-07T18:45:39.217Z,13.43
2022-11-07T18:48:06.260Z,8.70
2022-11-07T18:50:38.237Z,9.82
2022-11-07T18:53:05.076Z,10.80
2022-11-07T18:55:31.977Z,10.95
2022-11-07T18:57:59.240Z,9.43
2022-11-07T19:00:35.310Z,12.00
2022-11-07T19:03:06.611Z,10.25
2022-11-07T19:05:38.613Z,10.93
2022-11-07T19:08:07.982Z,9.60
2022-11-07T19:10:34.836Z,11.07
2022-11-07T19:35:26.386Z,10.40
2022-11-07T19:37:53.246Z,13.50
2022-11-07T19:46:58.967Z,14.65
2022-11-07T19:49:51.894Z,11.95
2022-11-07T19:52:46.245Z,12.30
2022-11-07T19:55:24.669Z,10.50
2022-11-07T19:59:01.086Z,12.73
2022-11-07T20:01:39.231Z,8.88
2022-11-07T20:04:08.837Z,10.88
2022-11-07T20:10:19.531Z,10.40
2022-11-07T20:22:03.795Z,9.43
2022-11-07T20:25:02.878Z,10.93
2022-11-07T20:32:34.409Z,10.48
2022-11-07T20:35:26.334Z,11.82
2022-11-07T20:50:18.820Z,9.38
2022-11-07T20:58:01.202Z,6.28
2022-11-07T21:00:33.845Z,6.78
2022-11-07T21:03:01.227Z,8.13
2022-11-07T21:05:28.406Z,8.40
2022-11-07T21:07:55.456Z,7.13
2022-11-07T21:10:22.371Z,7.18
2022-11-07T21:13:07.917Z,6.30
2022-11-07T21:18:04.376Z,5.75
2022-11-07T21:20:31.403Z,8.68
2022-11-07T21:22:58.203Z,8.23
2022-11-07T21:25:25.086Z,9.73
2022-11-07T21:27:51.993Z,8.88
2022-11-07T21:30:19.202Z,6.45
2022-11-07T21:32:46.279Z,6.72
2022-11-07T21:35:14.095Z,7.50
2022-11-07T21:37:41.013Z,7.80
2022-11-07T21:40:09.341Z,6.85
2022-11-07T21:42:36.258Z,6.57
2022-11-07T21:45:03.342Z,7.63
2022-11-07T21:47:30.726Z,6.80
2022-11-07T21:49:57.674Z,9.20
2022-11-07T21:55:23.480Z,5.38
2022-11-07T21:57:50.958Z,6.20
2022-11-07T22:00:18.204Z,7.68
2022-11-07T22:02:45.049Z,6.95
2022-11-07T22:05:15.302Z,6.70
2022-11-07T22:07:42.265Z,8.63
2022-11-07T22:10:10.025Z,6.22
2022-11-07T22:12:37.024Z,7.90
2022-11-07T22:15:04.486Z,5.78
2022-11-07T22:17:31.327Z,4.53
2022-11-07T22:19:58.172Z,6.20
2022-11-07T22:22:25.008Z,5.30
2022-11-07T22:24:51.971Z,4.78
2022-11-07T22:27:18.848Z,4.88
2022-11-07T22:29:46.860Z,7.70
2022-11-07T22:32:14.077Z,6.63
2022-11-07T22:34:40.986Z,8.05
2022-11-07T22:37:07.829Z,6.97
2022-11-07T22:39:34.602Z,7.53
2022-11-07T22:42:02.720Z,7.88
2022-11-07T22:44:29.665Z,6.15
2022-11-07T22:46:56.642Z,5.63
2022-11-07T22:49:23.620Z,7.47
2022-11-07T22:51:50.523Z,5.78
2022-11-07T22:54:17.412Z,5.55
2022-11-07T22:56:44.283Z,6.25
2022-11-07T22:59:11.695Z,5.38
2022-11-07T23:01:42.072Z,10.50
2022-11-07T23:04:14.124Z,5.10
2022-11-07T23:06:41.847Z,4.95
2022-11-07T23:09:08.707Z,4.75
2022-11-07T23:11:51.633Z,6.95
2022-11-07T23:14:21.363Z,5.63
2022-11-07T23:16:55.305Z,3.35
2022-11-07T23:19:25.488Z,5.32
2022-11-07T23:21:54.978Z,7.32
2022-11-07T23:24:22.707Z,7.57
2022-11-07T23:26:50.044Z,4.68
2022-11-07T23:29:23.985Z,5.47
2022-11-07T23:31:52.258Z,4.32
2022-11-07T23:34:21.290Z,6.85
2022-11-07T23:36:53.983Z,6.53
2022-11-07T23:39:23.202Z,5.60
2022-11-07T23:41:50.343Z,7.88
2022-11-07T23:44:17.262Z,5.35
2022-11-07T23:47:03.114Z,5.07
2022-11-07T23:49:48.945Z,3.97
2022-11-07T23:52:16.701Z,4.10
2022-11-07T23:55:02.552Z,4.93
2022-11-07T23:57:33.254Z,3.78
